createdAt,value
2019-05-25T00:02:02.086Z,94.10
2019-05-25T00:04:30.745Z,94.20
2019-05-25T00:06:59.379Z,94.30
2019-05-25T00:09:28.022Z,94.20
2019-05-25T00:11:56.550Z,94.20
2019-05-25T00:14:25.439Z,94.40
2019-05-25T00:16:54.123Z,94.30
2019-05-25T00:19:22.709Z,94.30
2019-05-25T00:21:51.446Z,94.10
2019-05-25T00:24:20.074Z,94.10
2019-05-25T00:26:48.718Z,94.00
2019-05-25T00:29:17.551Z,94.10
2019-05-25T00:31:46.141Z,94.20
2019-05-25T00:34:14.702Z,94.20
2019-05-25T00:36:43.308Z,94.20
2019-05-25T00:39:11.969Z,94.20
2019-05-25T00:41:40.758Z,94.30
2019-05-25T00:44:09.267Z,94.20
2019-05-25T00:46:37.811Z,94.10
2019-05-25T00:49:06.440Z,94.00
2019-05-25T00:51:35.118Z,94.00
2019-05-25T00:54:03.859Z,93.90
2019-05-25T00:56:32.728Z,94.00
2019-05-25T00:59:01.234Z,94.00
2019-05-25T01:01:29.907Z,94.30
2019-05-25T01:03:58.482Z,94.00
2019-05-25T01:06:27.098Z,94.00
2019-05-25T01:08:55.693Z,94.10
2019-05-25T01:11:24.306Z,94.00
2019-05-25T01:13:53.067Z,94.00
2019-05-25T01:16:21.535Z,93.90
2019-05-25T01:18:50.440Z,94.00
2019-05-25T01:21:19.051Z,94.00
2019-05-25T01:24:06.962Z,94.10
2019-05-25T01:26:35.561Z,94.00
2019-05-25T01:29:04.178Z,94.20
2019-05-25T01:31:32.786Z,94.20
2019-05-25T01:34:01.389Z,94.20
2019-05-25T01:36:29.998Z,94.20
2019-05-25T01:38:58.698Z,94.20
2019-05-25T01:41:27.233Z,94.00
2019-05-25T01:43:55.820Z,94.10
2019-05-25T01:46:24.389Z,94.20
2019-05-25T01:49:12.335Z,94.10
2019-05-25T01:51:40.871Z,94.00
2019-05-25T01:54:09.454Z,94.10
2019-05-25T01:56:57.352Z,94.00
2019-05-25T01:59:25.945Z,93.80
2019-05-25T02:01:54.499Z,93.90
2019-05-25T02:04:23.214Z,93.90
2019-05-25T02:06:51.766Z,93.90
2019-05-25T02:09:20.351Z,93.90
2019-05-25T02:12:08.292Z,94.00
2019-05-25T02:14:56.202Z,93.80
2019-05-25T02:17:24.865Z,93.90
2019-05-25T02:19:53.415Z,94.00
2019-05-25T02:22:22.787Z,94.10
2019-05-25T02:24:51.571Z,94.10
2019-05-25T02:27:20.466Z,94.00
2019-05-25T02:29:49.084Z,94.10
2019-05-25T02:32:17.614Z,94.10
2019-05-25T02:34:46.231Z,94.20
2019-05-25T02:37:14.890Z,94.40
2019-05-25T02:39:43.450Z,94.40
2019-05-25T02:42:12.173Z,94.50
2019-05-25T02:44:40.799Z,94.50
2019-05-25T02:47:09.388Z,94.50
2019-05-25T02:49:37.941Z,94.50
2019-05-25T02:52:06.653Z,94.40
2019-05-25T02:54:35.314Z,94.50
2019-05-25T02:57:04.208Z,94.50
2019-05-25T02:59:32.850Z,94.50
2019-05-25T03:02:01.637Z,94.60
2019-05-25T03:04:30.189Z,94.50
2019-05-25T03:06:59.001Z,94.30
2019-05-25T03:09:30.162Z,94.40
2019-05-25T03:11:59.874Z,94.50
2019-05-25T03:14:28.517Z,94.40
2019-05-25T03:16:57.102Z,94.40
2019-05-25T03:19:25.639Z,94.30
2019-05-25T03:21:54.518Z,94.20
2019-05-25T03:24:23.102Z,94.40
2019-05-25T03:26:51.690Z,94.40
2019-05-25T03:29:20.251Z,94.30
2019-05-25T03:31:48.864Z,94.30
2019-05-25T03:34:17.543Z,94.40
2019-05-25T03:36:46.265Z,94.30
2019-05-25T03:39:14.824Z,94.20
2019-05-25T03:41:43.477Z,94.30
2019-05-25T03:44:12.026Z,94.30
2019-05-25T03:46:40.651Z,94.40
2019-05-25T03:49:09.615Z,94.50
2019-05-25T03:51:38.218Z,94.50
2019-05-25T03:54:06.802Z,94.50
2019-05-25T03:56:35.577Z,94.50
2019-05-25T03:59:04.188Z,94.60
2019-05-25T04:01:32.790Z,94.60
2019-05-25T04:04:01.392Z,94.60
2019-05-25T04:06:30.253Z,94.40
2019-05-25T04:08:58.858Z,94.50
2019-05-25T04:11:27.564Z,94.10
2019-05-25T04:13:56.230Z,94.10
2019-05-25T04:16:24.774Z,94.00
2019-05-25T04:18:53.287Z,94.20
2019-05-25T04:21:21.874Z,94.40
2019-05-25T04:23:50.525Z,94.50
2019-05-25T04:26:22.438Z,94.60
2019-05-25T04:28:49.575Z,94.60
2019-05-25T04:31:18.191Z,94.40
2019-05-25T04:33:46.798Z,94.40
2019-05-25T04:36:15.376Z,94.30
2019-05-25T04:38:43.994Z,94.40
2019-05-25T04:41:12.770Z,94.30
2019-05-25T04:43:41.635Z,94.10
2019-05-25T04:46:10.287Z,94.10
2019-05-25T04:48:39.009Z,94.10
2019-05-25T04:51:07.768Z,94.10
2019-05-25T04:53:36.373Z,94.10
2019-05-25T04:56:07.092Z,94.10
2019-05-25T04:58:35.608Z,94.20
2019-05-25T05:01:04.153Z,94.10
2019-05-25T05:03:32.784Z,94.10
2019-05-25T05:06:01.499Z,94.10
2019-05-25T05:08:30.073Z,93.90
2019-05-25T05:10:58.772Z,93.80
2019-05-25T05:13:27.322Z,93.90
2019-05-25T05:15:55.917Z,93.90
2019-05-25T05:18:24.450Z,93.70
2019-05-25T05:20:53.106Z,93.80
2019-05-25T05:23:21.679Z,93.90
2019-05-25T05:25:50.398Z,93.90
2019-05-25T05:28:19.007Z,94.00
2019-05-25T05:30:48.482Z,94.00
2019-05-25T05:33:17.125Z,94.00
2019-05-25T05:35:47.264Z,94.10
2019-05-25T05:38:16.905Z,94.20
2019-05-25T05:40:46.339Z,94.30
2019-05-25T05:43:16.372Z,94.40
2019-05-25T05:45:47.014Z,94.40
2019-05-25T05:48:17.596Z,94.40
2019-05-25T05:50:48.608Z,94.50
2019-05-25T05:53:18.805Z,94.50
2019-05-25T05:55:47.519Z,94.80
2019-05-25T05:58:16.101Z,94.50
2019-05-25T06:00:44.663Z,94.40
2019-05-25T06:03:13.372Z,94.40
2019-05-25T06:05:41.975Z,94.30
2019-05-25T06:08:10.657Z,94.00
2019-05-25T06:10:39.279Z,93.90
2019-05-25T06:13:09.810Z,94.00
2019-05-25T06:15:38.418Z,93.80
2019-05-25T06:18:07.079Z,93.80
2019-05-25T06:20:35.692Z,93.70
2019-05-25T06:23:07.818Z,93.40
2019-05-25T06:25:34.801Z,93.40
2019-05-25T06:28:05.252Z,93.30
2019-05-25T06:30:33.953Z,93.20
2019-05-25T06:33:02.549Z,92.80
2019-05-25T06:35:32.859Z,92.90
2019-05-25T06:38:03.372Z,92.80
2019-05-25T06:40:31.934Z,92.60
2019-05-25T06:43:00.504Z,92.40
2019-05-25T06:45:29.063Z,92.30
2019-05-25T06:47:57.662Z,92.20
2019-05-25T06:50:26.379Z,92.20
2019-05-25T06:52:57.942Z,92.20
2019-05-25T06:55:28.133Z,92.30
2019-05-25T06:57:56.609Z,92.30
2019-05-25T07:00:27.006Z,92.30
2019-05-25T07:02:55.559Z,92.10
2019-05-25T07:05:24.253Z,92.10
2019-05-25T07:07:54.683Z,92.00
2019-05-25T07:10:23.581Z,92.00
2019-05-25T07:12:52.235Z,91.90
2019-05-25T07:15:20.793Z,91.70
2019-05-25T07:17:49.435Z,91.50
2019-05-25T07:20:18.272Z,91.20
2019-05-25T07:22:46.934Z,91.10
2019-05-25T07:25:20.005Z,90.80
2019-05-25T07:27:58.689Z,90.60
2019-05-25T07:30:18.275Z,90.60
2019-05-25T07:32:47.325Z,90.10
2019-05-25T07:35:16.635Z,90.00
2019-05-25T07:37:45.477Z,89.70
2019-05-25T07:40:14.855Z,89.20
2019-05-25T07:42:43.531Z,88.70
2019-05-25T07:45:15.210Z,88.30
2019-05-25T07:47:43.819Z,88.00
2019-05-25T07:50:13.169Z,88.00
2019-05-25T07:52:41.752Z,87.90
2019-05-25T07:55:10.649Z,87.90
2019-05-25T07:57:39.516Z,87.50
2019-05-25T08:00:09.206Z,87.60
2019-05-25T08:02:37.963Z,86.70
2019-05-25T08:05:07.790Z,86.70
2019-05-25T08:07:36.569Z,86.40
2019-05-25T08:10:06.782Z,86.40
2019-05-25T08:12:35.418Z,86.70
2019-05-25T08:15:05.514Z,86.00
2019-05-25T08:17:34.439Z,85.70
2019-05-25T08:20:03.938Z,85.40
2019-05-25T08:22:32.586Z,85.20
2019-05-25T08:25:02.831Z,85.50
2019-05-25T08:27:31.386Z,85.30
2019-05-25T08:29:59.963Z,84.70
2019-05-25T08:32:28.583Z,84.40
2019-05-25T08:34:57.261Z,84.00
2019-05-25T08:37:26.151Z,83.70
2019-05-25T08:39:54.814Z,83.00
2019-05-25T08:42:23.390Z,82.10
2019-05-25T08:44:51.974Z,81.00
2019-05-25T08:47:20.645Z,79.60
2019-05-25T08:49:49.452Z,79.10
2019-05-25T08:52:37.763Z,78.70
2019-05-25T08:55:07.834Z,79.40
2019-05-25T08:57:38.167Z,81.10
2019-05-25T09:00:07.507Z,81.40
2019-05-25T09:02:36.073Z,81.90
2019-05-25T09:05:08.859Z,81.70
2019-05-25T09:07:40.850Z,81.80
2019-05-25T09:10:11.042Z,82.40
2019-05-25T09:12:39.759Z,82.00
2019-05-25T09:15:10.327Z,81.60
2019-05-25T09:17:38.944Z,81.50
2019-05-25T09:20:09.495Z,80.80
2019-05-25T09:22:38.243Z,80.90
2019-05-25T09:25:08.984Z,80.90
2019-05-25T09:27:37.501Z,80.90
2019-05-25T09:30:08.300Z,80.60
2019-05-25T09:32:37.002Z,80.70
2019-05-25T09:35:07.411Z,80.50
2019-05-25T09:37:36.108Z,80.50
2019-05-25T09:40:06.096Z,80.70
2019-05-25T09:42:34.754Z,80.60
2019-05-25T09:45:04.958Z,78.30
2019-05-25T09:47:33.614Z,78.40
2019-05-25T09:50:02.106Z,78.30
2019-05-25T09:52:30.803Z,79.20
2019-05-25T09:55:00.492Z,78.60
2019-05-25T09:57:29.177Z,78.70
2019-05-25T09:59:58.087Z,78.90
2019-05-25T10:02:27.442Z,77.60
2019-05-25T10:04:56.146Z,77.90
2019-05-25T10:07:24.946Z,77.30
2019-05-25T10:09:54.263Z,77.30
2019-05-25T10:12:22.923Z,74.90
2019-05-25T10:14:51.526Z,76.00
2019-05-25T10:17:20.123Z,76.10
2019-05-25T10:19:48.774Z,76.30
2019-05-25T10:22:17.589Z,75.60
2019-05-25T10:24:46.219Z,75.80
2019-05-25T10:27:14.921Z,76.70
2019-05-25T10:29:43.536Z,77.60
2019-05-25T10:32:12.186Z,76.00
2019-05-25T10:34:40.949Z,76.30
2019-05-25T10:37:09.623Z,76.70
2019-05-25T10:39:39.928Z,77.10
2019-05-25T10:42:08.537Z,76.50
2019-05-25T10:44:37.121Z,76.20
2019-05-25T10:47:05.759Z,77.60
2019-05-25T10:49:34.547Z,76.10
2019-05-25T10:52:03.260Z,75.90
2019-05-25T10:54:31.869Z,75.50
2019-05-25T10:57:00.602Z,77.00
2019-05-25T10:59:29.234Z,76.50
2019-05-25T11:01:57.804Z,76.30
2019-05-25T11:04:26.410Z,77.10
2019-05-25T11:06:54.988Z,78.70
2019-05-25T11:09:23.551Z,78.40
2019-05-25T11:11:52.204Z,79.30
2019-05-25T11:14:20.822Z,79.50
2019-05-25T11:16:49.610Z,79.90
2019-05-25T11:19:18.309Z,79.70
2019-05-25T11:21:46.994Z,79.70
2019-05-25T11:24:15.592Z,79.90
2019-05-25T11:26:44.286Z,79.40
2019-05-25T11:29:12.926Z,79.70
2019-05-25T11:31:41.498Z,78.80
2019-05-25T11:34:10.114Z,78.50
2019-05-25T11:36:38.768Z,87.30
2019-05-25T11:39:07.863Z,92.40
2019-05-25T11:41:36.391Z,92.20
2019-05-25T11:44:05.388Z,93.10
2019-05-25T11:46:33.975Z,92.70
2019-05-25T11:49:03.849Z,93.50
2019-05-25T11:51:32.478Z,95.00
2019-05-25T11:54:01.157Z,95.40
2019-05-25T11:56:29.771Z,95.60
2019-05-25T11:58:58.370Z,96.60
2019-05-25T12:01:26.929Z,96.70
2019-05-25T12:03:55.599Z,98.40
2019-05-25T12:06:26.944Z,99.10
2019-05-25T12:08:57.138Z,99.90
2019-05-25T12:11:45.106Z,99.90
2019-05-25T12:14:14.508Z,99.90
2019-05-25T12:16:43.199Z,99.90
2019-05-25T12:19:14.859Z,99.90
2019-05-25T12:21:42.185Z,99.90
2019-05-25T12:24:10.825Z,99.90
2019-05-25T12:26:58.731Z,99.90
2019-05-25T12:29:27.451Z,99.90
2019-05-25T12:32:04.226Z,99.90
2019-05-25T12:34:26.401Z,99.90
2019-05-25T12:37:14.371Z,99.90
2019-05-25T12:39:43.155Z,99.90
2019-05-25T12:42:11.820Z,99.90
2019-05-25T12:44:40.359Z,99.90
2019-05-25T12:47:09.221Z,99.90
2019-05-25T12:49:50.047Z,99.90
2019-05-25T12:52:08.194Z,99.90
2019-05-25T12:54:36.793Z,99.90
2019-05-25T12:57:05.467Z,99.90
2019-05-25T12:59:34.117Z,99.90
2019-05-25T13:02:02.715Z,99.90
2019-05-25T13:04:31.339Z,99.90
2019-05-25T13:07:00.002Z,99.90
2019-05-25T13:09:28.661Z,99.90
2019-05-25T13:11:57.245Z,99.90
2019-05-25T13:14:26.146Z,99.90
2019-05-25T13:16:54.876Z,99.90
2019-05-25T13:19:23.712Z,99.90
2019-05-25T13:21:52.332Z,99.90
2019-05-25T13:24:21.391Z,99.90
2019-05-25T13:26:50.026Z,99.90
2019-05-25T13:29:18.807Z,99.90
2019-05-25T13:31:47.480Z,99.90
2019-05-25T13:34:16.257Z,99.90
2019-05-25T13:36:44.928Z,99.90
2019-05-25T13:39:13.631Z,99.90
2019-05-25T13:41:43.943Z,99.90
2019-05-25T13:44:12.497Z,99.90
2019-05-25T13:46:41.134Z,99.20
2019-05-25T13:49:09.742Z,98.90
2019-05-25T13:51:38.407Z,99.40
2019-05-25T13:54:06.964Z,98.50
2019-05-25T13:56:35.703Z,98.70
2019-05-25T13:59:04.556Z,98.30
2019-05-25T14:01:33.187Z,97.80
2019-05-25T14:04:02.083Z,97.80
2019-05-25T14:06:30.750Z,97.90
2019-05-25T14:08:59.340Z,98.20
2019-05-25T14:11:27.976Z,98.10
2019-05-25T14:13:56.662Z,97.80
2019-05-25T14:16:25.539Z,97.40
2019-05-25T14:18:54.165Z,97.50
2019-05-25T14:21:22.832Z,97.30
2019-05-25T14:23:51.543Z,97.10
2019-05-25T14:26:20.251Z,97.50
2019-05-25T14:28:48.908Z,97.60
2019-05-25T14:31:17.458Z,95.70
2019-05-25T14:33:46.336Z,94.50
2019-05-25T14:36:23.974Z,94.50
2019-05-25T14:38:52.641Z,93.80
2019-05-25T14:41:21.316Z,94.70
2019-05-25T14:43:49.937Z,95.30
2019-05-25T14:46:27.301Z,96.10
2019-05-25T14:48:48.786Z,96.30
2019-05-25T14:51:17.441Z,96.70
2019-05-25T14:53:46.038Z,97.00
2019-05-25T14:56:14.665Z,97.30
2019-05-25T14:58:43.543Z,97.30
2019-05-25T15:01:12.087Z,97.40
2019-05-25T15:03:41.010Z,98.20
2019-05-25T15:06:10.399Z,98.00
2019-05-25T15:08:39.171Z,98.30
2019-05-25T15:11:07.957Z,98.00
2019-05-25T15:13:36.586Z,98.40
2019-05-25T15:16:05.301Z,98.80
2019-05-25T15:18:36.968Z,99.90
2019-05-25T15:21:05.823Z,99.90
2019-05-25T15:23:40.490Z,99.90
2019-05-25T15:26:09.177Z,99.90
2019-05-25T15:28:38.016Z,99.90
2019-05-25T15:31:07.698Z,99.90
2019-05-25T15:33:36.483Z,99.90
2019-05-25T15:36:05.763Z,99.90
2019-05-25T15:38:34.317Z,99.90
2019-05-25T15:41:02.848Z,99.90
2019-05-25T15:43:31.439Z,99.90
2019-05-25T15:46:00.099Z,99.90
2019-05-25T15:48:28.782Z,99.90
2019-05-25T15:50:57.441Z,99.90
2019-05-25T15:53:26.075Z,99.90
2019-05-25T15:55:54.662Z,99.90
2019-05-25T15:58:23.376Z,99.90
2019-05-25T16:00:52.777Z,99.90
2019-05-25T16:03:21.437Z,99.90
2019-05-25T16:05:50.537Z,99.90
2019-05-25T16:08:20.444Z,99.90
2019-05-25T16:10:49.543Z,99.90
2019-05-25T16:13:18.516Z,99.90
2019-05-25T16:15:47.226Z,99.90
2019-05-25T16:18:15.890Z,99.90
2019-05-25T16:20:44.502Z,99.90
2019-05-25T16:23:13.268Z,99.90
2019-05-25T16:25:42.411Z,99.90
2019-05-25T16:28:11.027Z,99.90
2019-05-25T16:30:39.590Z,99.90
2019-05-25T16:33:12.545Z,99.90
2019-05-25T16:35:38.582Z,99.90
2019-05-25T16:38:07.278Z,99.90
2019-05-25T16:40:36.244Z,99.90
2019-05-25T16:43:05.209Z,99.90
2019-05-25T16:45:33.854Z,99.90
2019-05-25T16:48:02.424Z,99.90
2019-05-25T16:50:30.987Z,99.90
2019-05-25T16:52:59.955Z,99.90
2019-05-25T16:55:28.543Z,99.90
2019-05-25T16:57:57.174Z,99.90
2019-05-25T17:00:29.885Z,99.90
2019-05-25T17:02:59.399Z,99.90
2019-05-25T17:05:28.587Z,99.90
2019-05-25T17:07:57.762Z,99.90
2019-05-25T17:10:27.184Z,99.90
2019-05-25T17:12:55.862Z,99.90
2019-05-25T17:15:24.714Z,99.90
2019-05-25T17:17:53.900Z,99.90
2019-05-25T17:20:22.632Z,99.90
2019-05-25T17:22:51.260Z,99.90
2019-05-25T17:25:20.246Z,99.90
2019-05-25T17:27:49.109Z,99.90
2019-05-25T17:30:20.749Z,99.90
2019-05-25T17:32:49.338Z,99.90
2019-05-25T17:35:17.891Z,99.90
2019-05-25T17:37:46.539Z,99.90
2019-05-25T17:40:15.554Z,99.90
2019-05-25T17:42:44.143Z,99.90
2019-05-25T17:45:13.091Z,99.90
2019-05-25T17:47:43.374Z,99.90
2019-05-25T17:50:13.726Z,99.90
2019-05-25T17:52:42.314Z,99.90
2019-05-25T17:55:11.297Z,99.90
2019-05-25T17:57:39.970Z,99.90
2019-05-25T18:00:10.616Z,99.90
2019-05-25T18:02:39.529Z,99.90
2019-05-25T18:05:09.839Z,99.90
2019-05-25T18:07:39.615Z,99.90
2019-05-25T18:10:09.304Z,99.90
2019-05-25T18:12:37.994Z,99.90
2019-05-25T18:15:11.295Z,99.90
2019-05-25T18:17:39.948Z,99.90
2019-05-25T18:20:10.581Z,99.90
2019-05-25T18:22:39.237Z,99.90
2019-05-25T18:25:07.985Z,99.90
2019-05-25T18:27:36.639Z,99.90
2019-05-25T18:30:11.112Z,99.90
2019-05-25T18:32:39.912Z,99.90
2019-05-25T18:35:09.181Z,99.90
2019-05-25T18:37:37.887Z,99.90
2019-05-25T18:40:08.214Z,99.90
2019-05-25T18:42:37.158Z,99.90
2019-05-25T18:45:07.819Z,99.90
2019-05-25T18:47:36.898Z,99.90
2019-05-25T18:50:08.430Z,99.90
2019-05-25T18:52:37.085Z,99.90
2019-05-25T18:55:08.094Z,99.90
2019-05-25T18:57:36.708Z,99.90
2019-05-25T19:00:11.450Z,99.90
2019-05-25T19:02:40.085Z,99.90
2019-05-25T19:05:09.623Z,99.90
2019-05-25T19:07:38.498Z,99.90
2019-05-25T19:10:10.679Z,99.90
2019-05-25T19:12:39.349Z,99.90
2019-05-25T19:15:09.263Z,99.90
2019-05-25T19:17:37.970Z,99.90
2019-05-25T19:20:08.039Z,99.90
2019-05-25T19:22:37.035Z,99.90
2019-05-25T19:25:08.337Z,99.90
2019-05-25T19:27:37.029Z,99.90
2019-05-25T19:30:10.379Z,99.90
2019-05-25T19:32:38.937Z,99.90
2019-05-25T19:35:09.145Z,99.90
2019-05-25T19:37:41.860Z,99.90
2019-05-25T19:40:09.684Z,99.90
2019-05-25T19:42:38.341Z,99.90
2019-05-25T19:45:12.076Z,99.90
2019-05-25T19:47:40.646Z,99.90
2019-05-25T19:50:10.239Z,99.90
2019-05-25T19:52:39.009Z,99.90
2019-05-25T19:55:08.507Z,99.90
2019-05-25T19:57:38.751Z,99.90
2019-05-25T20:00:08.431Z,99.90
2019-05-25T20:02:37.109Z,99.90
2019-05-25T20:05:16.452Z,99.90
2019-05-25T20:07:37.901Z,99.90
2019-05-25T20:10:07.438Z,99.90
2019-05-25T20:12:36.145Z,99.90
2019-05-25T20:15:07.021Z,99.90
2019-05-25T20:17:35.910Z,99.90
2019-05-25T20:20:06.362Z,99.90
2019-05-25T20:22:35.018Z,99.90
2019-05-25T20:25:07.176Z,99.90
2019-05-25T20:27:35.919Z,99.90
2019-05-25T20:30:09.146Z,99.90
2019-05-25T20:32:39.370Z,99.90
2019-05-25T20:35:08.773Z,99.90
2019-05-25T20:37:37.607Z,99.90
2019-05-25T20:40:08.370Z,99.90
2019-05-25T20:42:37.287Z,99.90
2019-05-25T20:45:11.072Z,99.90
2019-05-25T20:47:39.704Z,99.90
2019-05-25T20:50:09.102Z,99.90
2019-05-25T20:52:37.697Z,99.90
2019-05-25T20:55:10.478Z,99.90
2019-05-25T20:57:39.154Z,99.90
2019-05-25T21:00:09.473Z,99.90
2019-05-25T21:02:38.144Z,99.90
2019-05-25T21:05:07.981Z,99.90
2019-05-25T21:07:36.770Z,99.90
2019-05-25T21:10:08.690Z,99.90
2019-05-25T21:12:37.345Z,99.90
2019-05-25T21:15:08.203Z,99.90
2019-05-25T21:17:36.784Z,99.90
2019-05-25T21:20:06.574Z,99.90
2019-05-25T21:22:35.942Z,99.90
2019-05-25T21:25:07.055Z,99.90
2019-05-25T21:27:35.759Z,99.90
2019-05-25T21:30:06.190Z,99.90
2019-05-25T21:32:34.773Z,99.90
2019-05-25T21:35:03.854Z,99.90
2019-05-25T21:37:32.581Z,99.90
2019-05-25T21:40:01.163Z,99.90
2019-05-25T21:42:29.742Z,99.90
2019-05-25T21:44:58.343Z,99.90
2019-05-25T21:47:26.875Z,99.90
2019-05-25T21:49:55.526Z,99.90
2019-05-25T21:52:24.182Z,99.90
2019-05-25T21:54:52.804Z,99.90
2019-05-25T21:57:21.363Z,99.90
2019-05-25T21:59:49.965Z,99.90
2019-05-25T22:02:18.815Z,99.90
2019-05-25T22:04:47.374Z,99.90
2019-05-25T22:07:15.971Z,99.90
2019-05-25T22:09:44.587Z,99.90
2019-05-25T22:12:13.322Z,99.90
2019-05-25T22:14:41.950Z,99.90
2019-05-25T22:17:10.595Z,99.90
2019-05-25T22:19:39.149Z,99.90
2019-05-25T22:22:07.916Z,99.90
2019-05-25T22:24:36.720Z,99.90
2019-05-25T22:27:08.086Z,99.90
2019-05-25T22:29:36.710Z,99.90
2019-05-25T22:32:05.430Z,99.90
2019-05-25T22:34:34.106Z,99.90
2019-05-25T22:37:02.663Z,99.90
2019-05-25T22:39:31.295Z,99.90
2019-05-25T22:41:59.896Z,99.90
2019-05-25T22:44:28.471Z,99.90
2019-05-25T22:46:57.128Z,99.90
2019-05-25T22:49:25.779Z,99.90
2019-05-25T22:51:54.358Z,99.90
2019-05-25T22:54:22.954Z,99.90
2019-05-25T22:56:51.524Z,99.90
2019-05-25T22:59:20.358Z,99.90
2019-05-25T23:01:49.102Z,99.90
2019-05-25T23:04:17.731Z,99.90
2019-05-25T23:06:57.237Z,99.90
2019-05-25T23:09:16.678Z,99.90
2019-05-25T23:11:45.246Z,99.90
2019-05-25T23:14:13.864Z,99.90
2019-05-25T23:16:42.484Z,99.90
2019-05-25T23:19:11.046Z,99.90
2019-05-25T23:21:39.656Z,99.90
2019-05-25T23:24:08.338Z,99.90
2019-05-25T23:26:37.094Z,99.90
2019-05-25T23:29:05.933Z,99.90
2019-05-25T23:31:34.595Z,99.90
2019-05-25T23:34:03.268Z,99.90
2019-05-25T23:36:31.921Z,99.90
2019-05-25T23:39:00.574Z,99.90
2019-05-25T23:41:29.159Z,99.90
2019-05-25T23:43:59.962Z,99.90
2019-05-25T23:46:28.053Z,99.90
2019-05-25T23:48:56.614Z,99.90
2019-05-25T23:51:25.260Z,99.90
2019-05-25T23:53:53.819Z,99.90
2019-05-25T23:56:22.391Z,99.90
2019-05-25T23:58:50.974Z,99.90
